Terminal Aerodrome Forecast
Issued by NWS Bismarck, ND

Home | Current Version | Previous Version | Text Only | Print | Product List | Glossary Off
Versions: 1 2 3 4 5 6 7 8 9 10 11 12 13 14 15 16 17 18 19 20 21 22

000
FTUS43 KBIS 290800 AAA
TAFBIS
TAF AMD
KBIS 290805Z 2908/3006 33013G18KT P6SM OVC015
      TEMPO 2908/2910 5SM -FZDZ BR BKN015 OVC025
     FM291400 33011KT P6SM OVC015
     FM292200 02005KT P6SM BKN018 OVC022
     FM300300 13005KT P6SM BKN015=

USA.gov is the U.S. government's official web portal to all federal, state and local government web resources and services.